createdAt,value
2023-01-18T00:01:19.628Z,120.88
2023-01-18T00:03:49.473Z,112.20
2023-01-18T00:06:17.984Z,123.05
2023-01-18T00:08:45.193Z,109.18
2023-01-18T00:11:19.102Z,108.30
2023-01-18T00:13:48.404Z,97.18
2023-01-18T00:16:20.101Z,106.70
2023-01-18T00:18:57.013Z,124.68
2023-01-18T00:21:28.371Z,149.93
2023-01-18T00:23:57.029Z,105.97
2023-01-18T00:26:24.276Z,120.68
2023-01-18T00:28:51.471Z,119.25
2023-01-18T00:31:21.144Z,103.60
2023-01-18T00:33:50.248Z,121.30
2023-01-18T00:36:18.699Z,102.55
2023-01-18T00:38:52.407Z,85.55
2023-01-18T00:41:24.297Z,86.53
2023-01-18T00:43:52.153Z,71.43
2023-01-18T00:46:28.475Z,74.95
2023-01-18T00:48:57.406Z,68.70
2023-01-18T00:51:25.706Z,76.97
2023-01-18T00:53:52.884Z,80.05
2023-01-18T00:56:22.586Z,75.20
2023-01-18T00:58:49.856Z,78.25
2023-01-18T01:01:17.435Z,66.40
2023-01-18T01:04:10.875Z,77.43
2023-01-18T01:06:47.463Z,65.07
2023-01-18T01:09:21.147Z,67.13
2023-01-18T01:12:08.046Z,63.83
2023-01-18T01:14:58.683Z,59.25
2023-01-18T01:17:46.186Z,63.95
2023-01-18T01:20:32.023Z,50.30
2023-01-18T01:23:38.239Z,63.19
2023-01-18T01:26:13.397Z,72.72
2023-01-18T01:28:45.842Z,63.25
2023-01-18T01:31:15.855Z,70.50
2023-01-18T01:33:45.021Z,66.07
2023-01-18T01:36:21.463Z,54.30
2023-01-18T01:38:48.668Z,55.28
2023-01-18T01:41:28.141Z,46.97
2023-01-18T01:44:02.997Z,52.92
2023-01-18T01:46:47.199Z,35.67
2023-01-18T01:49:21.025Z,40.78
2023-01-18T01:51:56.262Z,37.25
2023-01-18T01:54:38.658Z,35.78
2023-01-18T01:57:31.457Z,40.22
2023-01-18T02:00:02.532Z,39.08
2023-01-18T02:02:31.402Z,28.02
2023-01-18T02:05:00.336Z,37.70
2023-01-18T02:07:29.012Z,42.15
2023-01-18T02:09:58.181Z,44.17
2023-01-18T02:12:26.703Z,40.25
2023-01-18T02:14:56.783Z,43.55
2023-01-18T02:18:07.233Z,45.97
2023-01-18T02:21:06.973Z,43.10
2023-01-18T02:24:15.529Z,39.13
2023-01-18T02:27:00.449Z,37.55
2023-01-18T02:30:11.874Z,36.35
2023-01-18T02:33:01.339Z,34.90
2023-01-18T02:36:02.430Z,35.00
2023-01-18T02:38:55.809Z,33.97
2023-01-18T02:42:03.281Z,31.10
2023-01-18T02:45:02.431Z,33.45
2023-01-18T02:47:30.527Z,33.08
2023-01-18T02:49:58.375Z,36.75
2023-01-18T02:52:47.306Z,33.85
2023-01-18T02:55:33.878Z,36.08
2023-01-18T02:58:21.914Z,32.65
2023-01-18T03:01:02.263Z,32.28
2023-01-18T03:03:29.526Z,35.28
2023-01-18T03:06:01.917Z,36.38
2023-01-18T03:08:38.066Z,33.92
2023-01-18T03:11:29.122Z,37.50
2023-01-18T03:14:38.256Z,43.50
2023-01-18T03:17:21.048Z,52.08
2023-01-18T03:20:11.742Z,51.22
2023-01-18T03:23:17.979Z,52.67
2023-01-18T03:25:48.689Z,55.42
2023-01-18T03:29:07.987Z,58.05
2023-01-18T03:32:23.582Z,49.58
2023-01-18T03:35:10.711Z,47.28
2023-01-18T03:37:42.467Z,44.28
2023-01-18T03:40:19.119Z,57.38
2023-01-18T03:43:18.779Z,55.65
2023-01-18T03:45:52.524Z,49.95
2023-01-18T03:48:19.722Z,57.35
2023-01-18T03:51:09.341Z,60.25
2023-01-18T03:53:48.285Z,56.80
2023-01-18T03:56:27.267Z,58.63
2023-01-18T03:59:02.598Z,53.45
2023-01-18T04:01:30.137Z,55.85
2023-01-18T04:03:59.774Z,54.28
2023-01-18T04:06:27.332Z,63.42
2023-01-18T04:08:54.500Z,52.70
2023-01-18T04:11:23.147Z,50.92
2023-01-18T04:13:50.297Z,52.72
2023-01-18T04:16:17.392Z,52.22
2023-01-18T04:18:44.563Z,51.50
2023-01-18T04:21:11.684Z,57.80
2023-01-18T04:23:38.732Z,56.83
2023-01-18T04:26:06.127Z,52.35
2023-01-18T04:28:34.635Z,58.17
2023-01-18T04:31:04.458Z,58.80
2023-01-18T04:33:31.608Z,55.22
2023-01-18T04:35:58.710Z,53.13
2023-01-18T04:38:35.011Z,54.13
2023-01-18T04:41:06.374Z,49.85
2023-01-18T04:43:38.529Z,37.15
2023-01-18T04:48:33.488Z,42.88
2023-01-18T04:51:00.924Z,41.13
2023-01-18T04:53:29.231Z,41.55
2023-01-18T04:55:59.826Z,46.92
2023-01-18T04:58:26.929Z,40.80
2023-01-18T05:00:54.113Z,41.55
2023-01-18T05:03:21.249Z,45.28
2023-01-18T05:05:48.372Z,41.83
2023-01-18T05:08:15.533Z,40.03
2023-01-18T05:10:45.197Z,43.55
2023-01-18T05:13:12.354Z,40.47
2023-01-18T05:15:41.957Z,40.63
2023-01-18T05:18:09.070Z,38.63
2023-01-18T05:20:36.221Z,37.88
2023-01-18T05:23:10.830Z,38.17
2023-01-18T05:25:39.298Z,38.00
2023-01-18T05:28:08.736Z,43.33
2023-01-18T05:30:41.335Z,45.85
2023-01-18T05:33:09.788Z,38.38
2023-01-18T05:35:39.403Z,36.85
2023-01-18T05:38:06.711Z,35.95
2023-01-18T05:40:33.884Z,41.13
2023-01-18T05:43:01.223Z,40.67
2023-01-18T05:45:28.510Z,34.53
2023-01-18T05:47:55.860Z,39.00
2023-01-18T05:50:23.176Z,36.65
2023-01-18T05:52:55.485Z,34.90
2023-01-18T05:55:22.682Z,41.88
2023-01-18T05:57:49.850Z,35.03
2023-01-18T06:00:17.650Z,43.17
2023-01-18T06:02:45.070Z,36.72
2023-01-18T06:05:12.882Z,39.72
2023-01-18T06:07:42.283Z,43.03
2023-01-18T06:10:12.947Z,40.15
2023-01-18T06:12:41.328Z,37.83
2023-01-18T06:15:11.980Z,34.53
2023-01-18T06:17:39.977Z,37.90
2023-01-18T06:20:08.289Z,39.15
2023-01-18T06:22:35.532Z,40.47
2023-01-18T06:25:02.657Z,39.15
2023-01-18T06:27:29.916Z,42.90
2023-01-18T06:29:57.105Z,38.78
2023-01-18T06:32:24.225Z,47.55
2023-01-18T06:34:51.716Z,41.85
2023-01-18T06:37:18.870Z,44.03
2023-01-18T06:39:45.921Z,42.60
2023-01-18T06:42:13.037Z,40.33
2023-01-18T06:44:41.097Z,41.45
2023-01-18T06:47:08.248Z,51.58
2023-01-18T06:49:35.477Z,51.05
2023-01-18T06:52:02.867Z,50.33
2023-01-18T06:54:30.993Z,54.25
2023-01-18T06:57:00.687Z,62.33
2023-01-18T06:59:28.591Z,41.67
2023-01-18T07:01:58.558Z,42.05
2023-01-18T07:04:26.165Z,40.30
2023-01-18T07:06:53.566Z,47.03
2023-01-18T07:09:20.790Z,48.28
2023-01-18T07:11:48.047Z,47.60
2023-01-18T07:14:15.436Z,47.78
2023-01-18T07:16:42.712Z,46.92
2023-01-18T07:19:10.102Z,51.10
2023-01-18T07:21:37.294Z,55.58
2023-01-18T07:24:04.982Z,64.85
2023-01-18T07:26:32.105Z,61.83
2023-01-18T07:29:00.196Z,65.20
2023-01-18T07:31:27.632Z,83.22
2023-01-18T07:33:57.170Z,80.25
2023-01-18T07:36:24.562Z,57.63
2023-01-18T07:38:52.399Z,66.38
2023-01-18T07:41:23.396Z,62.58
2023-01-18T07:43:51.508Z,53.75
2023-01-18T07:46:22.276Z,64.53
2023-01-18T07:48:49.852Z,66.95
2023-01-18T07:51:17.003Z,57.58
2023-01-18T07:53:44.673Z,49.22
2023-01-18T07:56:17.953Z,51.78
2023-01-18T07:58:46.801Z,58.92
2023-01-18T08:01:18.230Z,63.80
2023-01-18T08:03:50.078Z,68.97
2023-01-18T08:06:25.092Z,66.28
2023-01-18T08:08:56.118Z,66.38
2023-01-18T08:11:23.569Z,69.38
2023-01-18T08:13:52.686Z,94.85
2023-01-18T08:16:20.162Z,78.55
2023-01-18T08:18:50.588Z,80.45
2023-01-18T08:21:20.595Z,74.38
2023-01-18T08:23:51.331Z,54.80
2023-01-18T08:26:18.480Z,56.97
2023-01-18T08:28:45.681Z,52.10
2023-01-18T08:31:21.404Z,36.80
2023-01-18T08:33:51.095Z,50.75
2023-01-18T08:36:26.828Z,50.45
2023-01-18T08:38:57.285Z,49.22
2023-01-18T08:41:29.012Z,38.50
2023-01-18T08:43:57.748Z,41.67
2023-01-18T08:46:26.061Z,45.47
2023-01-18T08:49:00.544Z,50.35
2023-01-18T08:51:27.758Z,49.38
2023-01-18T08:53:57.479Z,47.72
2023-01-18T08:56:25.544Z,58.50
2023-01-18T08:58:52.993Z,49.15
2023-01-18T09:01:23.447Z,44.65
2023-01-18T09:03:53.234Z,54.28
2023-01-18T09:06:22.658Z,49.17
2023-01-18T09:08:50.929Z,45.03
2023-01-18T09:11:20.481Z,50.30
2023-01-18T09:14:00.715Z,57.03
2023-01-18T09:16:29.151Z,48.38
2023-01-18T09:18:56.529Z,47.05
2023-01-18T09:21:24.523Z,43.33
2023-01-18T09:23:51.629Z,41.72
2023-01-18T09:26:21.144Z,39.50
2023-01-18T09:28:52.505Z,48.00
2023-01-18T09:31:23.441Z,44.13
2023-01-18T09:33:53.977Z,42.17
2023-01-18T09:36:26.787Z,42.42
2023-01-18T09:38:55.866Z,45.83
2023-01-18T09:41:34.781Z,62.47
2023-01-18T09:44:33.295Z,55.83
2023-01-18T09:47:21.668Z,54.58
2023-01-18T09:50:20.985Z,43.72
2023-01-18T09:52:57.734Z,46.28
2023-01-18T09:55:38.614Z,45.67
2023-01-18T09:58:43.013Z,40.42
2023-01-18T10:01:19.791Z,37.78
2023-01-18T10:04:22.508Z,35.30
2023-01-18T10:06:55.287Z,35.38
2023-01-18T10:09:42.032Z,34.15
2023-01-18T10:12:23.696Z,34.53
2023-01-18T10:15:01.281Z,51.47
2023-01-18T10:17:39.371Z,57.45
2023-01-18T10:20:55.765Z,51.35
2023-01-18T10:23:24.997Z,47.97
2023-01-18T10:26:08.065Z,41.83
2023-01-18T10:29:06.495Z,57.40
2023-01-18T10:31:51.798Z,64.38
2023-01-18T10:34:24.625Z,52.78
2023-01-18T10:37:33.657Z,51.17
2023-01-18T10:40:10.274Z,41.72
2023-01-18T10:42:50.985Z,33.92
2023-01-18T10:45:23.804Z,36.33
2023-01-18T10:47:55.007Z,39.17
2023-01-18T10:50:35.343Z,25.23
2023-01-18T10:53:41.489Z,25.73
2023-01-18T10:56:19.161Z,26.10
2023-01-18T10:59:00.203Z,23.42
2023-01-18T11:01:30.175Z,25.00
2023-01-18T11:04:07.770Z,26.85
2023-01-18T11:06:55.592Z,26.38
2023-01-18T11:09:51.669Z,24.25
2023-01-18T11:12:38.929Z,26.55
2023-01-18T11:15:15.234Z,20.27
2023-01-18T11:18:00.781Z,24.73
2023-01-18T11:20:53.224Z,24.95
2023-01-18T11:23:37.870Z,27.85
2023-01-18T11:26:19.152Z,25.52
2023-01-18T11:29:00.190Z,25.98
2023-01-18T11:31:32.155Z,29.02
2023-01-18T11:34:06.387Z,29.13
2023-01-18T11:36:40.674Z,26.17
2023-01-18T11:39:34.676Z,30.80
2023-01-18T11:42:31.706Z,23.80
2023-01-18T11:45:20.079Z,25.17
2023-01-18T11:48:08.651Z,29.13
2023-01-18T11:50:49.062Z,26.75
2023-01-18T11:53:17.023Z,33.03
2023-01-18T11:56:14.390Z,30.83
2023-01-18T11:58:41.637Z,23.23
2023-01-18T12:02:00.648Z,25.55
2023-01-18T12:04:40.427Z,28.75
2023-01-18T12:07:25.150Z,23.67
2023-01-18T12:09:55.818Z,24.23
2023-01-18T12:13:19.161Z,22.02
2023-01-18T12:15:52.277Z,26.73
2023-01-18T12:18:51.715Z,26.15
2023-01-18T12:21:30.906Z,25.40
2023-01-18T12:24:37.630Z,24.88
2023-01-18T12:27:29.397Z,33.28
2023-01-18T12:31:06.794Z,22.95
2023-01-18T12:34:08.158Z,15.60
2023-01-18T12:37:14.635Z,22.45
2023-01-18T12:40:35.180Z,19.08
2023-01-18T12:43:26.990Z,21.10
2023-01-18T12:46:07.064Z,21.65
2023-01-18T12:49:06.155Z,25.23
2023-01-18T12:51:37.769Z,24.67
2023-01-18T12:54:35.887Z,30.20
2023-01-18T12:57:04.238Z,26.92
2023-01-18T13:00:01.372Z,23.92
2023-01-18T13:02:37.847Z,26.73
2023-01-18T13:05:35.421Z,21.08
2023-01-18T13:08:27.472Z,25.55
2023-01-18T13:11:12.576Z,25.83
2023-01-18T13:13:42.211Z,21.67
2023-01-18T13:16:40.637Z,21.85
2023-01-18T13:19:20.483Z,20.92
2023-01-18T13:22:06.957Z,22.08
2023-01-18T13:24:53.352Z,20.90
2023-01-18T13:27:20.690Z,24.33
2023-01-18T13:29:49.062Z,20.10
2023-01-18T13:32:35.501Z,20.05
2023-01-18T13:35:21.137Z,22.50
2023-01-18T13:38:00.191Z,18.65
2023-01-18T13:40:35.947Z,20.70
2023-01-18T13:43:05.824Z,25.67
2023-01-18T13:45:53.089Z,22.38
2023-01-18T13:49:02.397Z,22.27
2023-01-18T13:51:42.164Z,24.48
2023-01-18T13:54:15.212Z,24.02
2023-01-18T13:57:04.357Z,21.98
2023-01-18T13:59:44.579Z,22.80
2023-01-18T14:02:23.366Z,23.65
2023-01-18T14:05:25.906Z,25.58
2023-01-18T14:08:01.382Z,26.48
2023-01-18T14:10:45.037Z,25.25
2023-01-18T14:13:17.886Z,24.17
2023-01-18T14:15:55.015Z,23.52
2023-01-18T14:18:30.467Z,23.05
2023-01-18T14:21:00.289Z,26.05
2023-01-18T14:23:33.519Z,24.30
2023-01-18T14:26:14.320Z,25.00
2023-01-18T14:29:01.826Z,25.92
2023-01-18T14:31:37.773Z,28.42
2023-01-18T14:34:30.299Z,30.50
2023-01-18T14:36:58.076Z,39.10
2023-01-18T14:39:26.074Z,36.78
2023-01-18T14:42:05.674Z,37.30
2023-01-18T14:44:57.467Z,33.10
2023-01-18T14:47:32.185Z,33.28
2023-01-18T14:50:03.309Z,32.22
2023-01-18T14:52:35.049Z,32.88
2023-01-18T14:55:02.662Z,38.25
2023-01-18T14:57:29.961Z,41.42
2023-01-18T15:00:16.346Z,42.60
2023-01-18T15:02:43.930Z,40.83
2023-01-18T15:05:21.054Z,37.42
2023-01-18T15:07:55.879Z,33.13
2023-01-18T15:10:24.328Z,25.98
2023-01-18T15:12:57.688Z,23.20
2023-01-18T15:15:34.123Z,27.70
2023-01-18T15:18:10.691Z,30.33
2023-01-18T15:21:15.586Z,25.08
2023-01-18T15:23:43.604Z,22.85
2023-01-18T15:26:10.899Z,27.70
2023-01-18T15:28:37.986Z,26.25
2023-01-18T15:31:16.416Z,26.73
2023-01-18T15:33:44.923Z,27.75
2023-01-18T15:36:12.568Z,26.35
2023-01-18T15:38:39.952Z,26.30
2023-01-18T15:41:15.049Z,26.33
2023-01-18T15:43:45.165Z,27.17
2023-01-18T15:46:17.472Z,26.63
2023-01-18T15:51:43.466Z,26.67
2023-01-18T15:54:22.493Z,26.50
2023-01-18T15:56:49.736Z,28.83
2023-01-18T15:59:26.371Z,27.50
2023-01-18T16:02:08.931Z,30.63
2023-01-18T16:04:36.371Z,28.02
2023-01-18T16:07:31.219Z,25.75
2023-01-18T16:10:17.083Z,28.00
2023-01-18T16:12:48.277Z,32.65
2023-01-18T16:15:31.764Z,22.10
2023-01-18T16:18:06.430Z,22.08
2023-01-18T16:20:35.300Z,22.45
2023-01-18T16:23:21.362Z,25.85
2023-01-18T16:26:02.866Z,23.30
2023-01-18T16:28:30.269Z,26.95
2023-01-18T16:30:57.509Z,23.38
2023-01-18T16:33:26.792Z,23.63
2023-01-18T16:35:53.878Z,24.52
2023-01-18T16:38:21.080Z,18.88
2023-01-18T16:40:50.996Z,22.95
2023-01-18T16:43:32.017Z,25.00
2023-01-18T16:46:04.208Z,25.40
2023-01-18T16:48:33.648Z,23.98
2023-01-18T16:51:01.438Z,21.45
2023-01-18T16:53:29.229Z,22.48
2023-01-18T16:55:57.036Z,26.13
2023-01-18T16:58:24.602Z,24.65
2023-01-18T17:01:08.212Z,29.42
2023-01-18T17:03:36.155Z,28.27
2023-01-18T17:06:05.925Z,29.25
2023-01-18T17:08:33.711Z,29.10
2023-01-18T17:11:00.906Z,29.52
2023-01-18T17:13:28.025Z,27.50
2023-01-18T17:15:55.248Z,34.63
2023-01-18T17:18:26.009Z,32.30
2023-01-18T17:20:54.831Z,36.30
2023-01-18T17:23:23.090Z,34.63
2023-01-18T17:25:50.164Z,35.03
2023-01-18T17:28:19.362Z,36.08
2023-01-18T17:30:49.732Z,38.58
2023-01-18T17:33:24.333Z,46.88
2023-01-18T17:35:54.249Z,46.83
2023-01-18T17:38:27.050Z,60.00
2023-01-18T17:40:56.343Z,53.75
2023-01-18T17:43:33.277Z,50.42
2023-01-18T17:46:06.448Z,38.78
2023-01-18T17:48:34.421Z,42.72
2023-01-18T17:51:04.364Z,37.70
2023-01-18T17:53:31.496Z,39.28
2023-01-18T17:55:58.562Z,38.95
2023-01-18T17:58:26.270Z,36.47
2023-01-18T18:00:53.626Z,39.17
2023-01-18T18:03:20.811Z,35.88
2023-01-18T18:05:48.271Z,42.40
2023-01-18T18:08:17.778Z,39.42
2023-01-18T18:10:44.932Z,40.47
2023-01-18T18:13:12.107Z,45.78
2023-01-18T18:15:39.265Z,41.47
2023-01-18T18:18:12.329Z,40.85
2023-01-18T18:20:58.602Z,51.80
2023-01-18T18:23:27.063Z,57.15
2023-01-18T18:25:54.882Z,61.28
2023-01-18T18:28:24.386Z,60.10
2023-01-18T18:30:56.892Z,56.72
2023-01-18T18:33:25.945Z,45.38
2023-01-18T18:35:53.531Z,46.30
2023-01-18T18:38:24.277Z,45.13
2023-01-18T18:40:51.911Z,44.85
2023-01-18T18:43:20.620Z,44.67
2023-01-18T18:45:48.171Z,45.20
2023-01-18T18:48:15.289Z,42.42
2023-01-18T18:50:42.366Z,45.28
2023-01-18T18:53:11.918Z,45.17
2023-01-18T18:55:41.512Z,41.10
2023-01-18T18:58:08.549Z,44.47
2023-01-18T19:00:36.103Z,44.67
2023-01-18T19:03:06.699Z,50.20
2023-01-18T19:05:35.930Z,46.67
2023-01-18T19:08:04.041Z,46.15
2023-01-18T19:10:31.304Z,48.80
2023-01-18T19:12:59.690Z,46.05
2023-01-18T19:15:27.289Z,43.42
2023-01-18T19:17:54.391Z,52.25
2023-01-18T19:20:37.003Z,50.03
2023-01-18T19:23:06.761Z,45.00
2023-01-18T19:25:33.923Z,51.72
2023-01-18T19:28:01.008Z,51.17
2023-01-18T19:30:28.238Z,46.25
2023-01-18T19:32:55.773Z,48.83
2023-01-18T19:35:23.024Z,49.35
2023-01-18T19:37:51.312Z,46.03
2023-01-18T19:40:20.103Z,47.22
2023-01-18T19:42:55.828Z,44.20
2023-01-18T19:45:28.181Z,45.88
2023-01-18T19:47:57.786Z,45.30
2023-01-18T19:50:26.899Z,43.28
2023-01-18T19:52:54.363Z,51.20
2023-01-18T19:55:21.808Z,51.50
2023-01-18T19:57:51.052Z,47.92
2023-01-18T20:00:19.167Z,47.53
2023-01-18T20:02:46.403Z,47.15
2023-01-18T20:05:15.908Z,51.53
2023-01-18T20:07:43.416Z,51.85
2023-01-18T20:10:11.317Z,47.65
2023-01-18T20:12:43.057Z,48.83
2023-01-18T20:15:11.901Z,47.92
2023-01-18T20:17:39.091Z,50.22
2023-01-18T20:20:07.550Z,49.30
2023-01-18T20:22:34.659Z,54.13
2023-01-18T20:25:01.712Z,45.00
2023-01-18T20:27:31.237Z,39.90
2023-01-18T20:29:58.970Z,44.90
2023-01-18T20:32:26.153Z,44.40
2023-01-18T20:34:53.364Z,48.55
2023-01-18T20:37:20.833Z,47.63
2023-01-18T20:39:50.219Z,51.10
2023-01-18T20:42:18.272Z,48.95
2023-01-18T20:44:49.264Z,52.00
2023-01-18T20:47:16.920Z,49.50
2023-01-18T20:49:45.513Z,48.42
2023-01-18T20:52:12.957Z,48.13
2023-01-18T20:54:40.054Z,47.53
2023-01-18T20:57:07.386Z,46.25
2023-01-18T20:59:34.815Z,46.72
2023-01-18T21:02:04.578Z,44.70
2023-01-18T21:04:35.950Z,48.47
2023-01-18T21:07:03.194Z,46.33
2023-01-18T21:09:30.368Z,43.10
2023-01-18T21:11:59.887Z,42.28
2023-01-18T21:14:29.639Z,44.33
2023-01-18T21:16:59.200Z,43.65
2023-01-18T21:19:29.452Z,49.08
2023-01-18T21:21:56.804Z,47.65
2023-01-18T21:24:24.056Z,50.55
2023-01-18T21:26:51.362Z,55.38
2023-01-18T21:29:18.622Z,59.08
2023-01-18T21:31:48.213Z,61.05
2023-01-18T21:34:15.581Z,65.32
2023-01-18T21:36:42.867Z,67.38
2023-01-18T21:39:18.293Z,70.50
2023-01-18T21:42:09.240Z,80.35
2023-01-18T21:44:55.171Z,78.72
2023-01-18T21:47:22.752Z,75.40
2023-01-18T21:50:17.418Z,83.25
2023-01-18T21:53:04.062Z,83.95
2023-01-18T21:55:31.271Z,85.38
2023-01-18T21:58:18.331Z,80.35
2023-01-18T22:00:45.542Z,70.18
2023-01-18T22:03:15.328Z,74.65
2023-01-18T22:05:44.903Z,83.20
2023-01-18T22:08:12.055Z,87.22
2023-01-18T22:10:39.205Z,88.10
2023-01-18T22:13:06.326Z,79.47
2023-01-18T22:15:33.435Z,86.80
2023-01-18T22:18:00.997Z,86.57
2023-01-18T22:20:31.668Z,79.40
2023-01-18T22:22:59.424Z,79.32
2023-01-18T22:25:26.556Z,78.90
2023-01-18T22:27:53.629Z,56.30
2023-01-18T22:30:20.935Z,59.33
2023-01-18T22:32:48.064Z,57.45
2023-01-18T22:35:15.256Z,54.90
2023-01-18T22:37:42.529Z,59.03
2023-01-18T22:40:12.449Z,56.92
2023-01-18T22:42:41.970Z,55.15
2023-01-18T22:45:11.981Z,54.40
2023-01-18T22:47:39.072Z,44.30
2023-01-18T22:50:11.907Z,47.08
2023-01-18T22:52:38.964Z,48.80
2023-01-18T22:55:09.210Z,48.58
2023-01-18T22:57:36.332Z,49.10
2023-01-18T23:00:07.064Z,51.00
2023-01-18T23:02:34.608Z,48.35
2023-01-18T23:05:01.743Z,53.08
2023-01-18T23:07:31.397Z,45.88
2023-01-18T23:09:58.597Z,48.25
2023-01-18T23:12:25.746Z,42.50
2023-01-18T23:15:11.618Z,44.30
2023-01-18T23:17:38.727Z,45.13
2023-01-18T23:20:10.227Z,44.15
2023-01-18T23:22:37.599Z,42.72
2023-01-18T23:25:05.262Z,54.13
2023-01-18T23:27:34.940Z,48.15
2023-01-18T23:30:02.595Z,50.70
2023-01-18T23:32:32.877Z,55.58
2023-01-18T23:35:02.690Z,52.45
2023-01-18T23:37:32.302Z,55.60
2023-01-18T23:40:18.481Z,59.00
2023-01-18T23:43:06.489Z,53.55
2023-01-18T23:45:52.177Z,56.67
2023-01-18T23:48:39.054Z,59.30
2023-01-18T23:51:27.212Z,54.40
2023-01-18T23:54:15.627Z,62.03
2023-01-18T23:56:45.165Z,58.38
2023-01-18T23:59:13.939Z,58.17
